createdAt,value
2022-08-02T00:04:34.675Z,84.9
2022-08-02T00:19:02.982Z,83.6
2022-08-02T00:34:32.964Z,85
2022-08-02T00:48:43.358Z,83.7
2022-08-02T01:03:08.690Z,85.8
2022-08-02T01:17:37.058Z,87.8
2022-08-02T01:32:05.521Z,85.7
2022-08-02T01:46:33.716Z,86
2022-08-02T02:01:01.459Z,87.9
2022-08-02T02:15:29.607Z,85.8
2022-08-02T02:29:57.279Z,88.9
2022-08-02T02:44:25.246Z,87.5
2022-08-02T02:58:53.439Z,89
2022-08-02T03:13:22.151Z,87
2022-08-02T03:27:50.532Z,89.5
2022-08-02T03:42:17.782Z,90.7
2022-08-02T03:56:46.437Z,89.8
2022-08-02T04:11:14.644Z,86.9
2022-08-02T04:25:42.760Z,93
2022-08-02T04:40:10.276Z,92.1
2022-08-02T04:54:38.310Z,92
2022-08-02T05:09:07.656Z,94
2022-08-02T05:23:36.850Z,93.1
2022-08-02T05:38:10.370Z,91.3
2022-08-02T05:52:35.794Z,92.4
2022-08-02T06:07:05.059Z,98
2022-08-02T06:22:36.834Z,94.7
2022-08-02T06:36:43.242Z,95.8
2022-08-02T06:51:10.853Z,99.3
2022-08-02T07:05:40.352Z,96.3
2022-08-02T07:20:10.487Z,90.9
2022-08-02T07:34:54.285Z,77.3
2022-08-02T07:49:29.822Z,56.9
2022-08-02T08:04:04.211Z,57.4
2022-08-02T08:18:34.477Z,49.2
2022-08-02T08:33:09.162Z,45.3
2022-08-02T08:47:39.361Z,46.8
2022-08-02T09:02:23.646Z,40.1
2022-08-02T09:16:44.854Z,36.2
2022-08-02T09:31:13.250Z,38.9
2022-08-02T09:45:32.124Z,43.4
2022-08-02T09:59:56.903Z,43.7
2022-08-02T10:14:26.336Z,44.3
2022-08-02T10:28:52.375Z,43.1
2022-08-02T10:43:24.210Z,42.4
2022-08-02T10:57:50.185Z,43.3
2022-08-02T11:12:16.264Z,41.7
2022-08-02T11:26:44.856Z,41.2
2022-08-02T11:41:12.909Z,41.7
2022-08-02T11:55:58.830Z,41.1
2022-08-02T12:10:31.337Z,41.4
2022-08-02T12:25:00.293Z,38.1
2022-08-02T12:39:23.197Z,39.8
2022-08-02T12:54:00.300Z,40.3
2022-08-02T13:08:18.320Z,40.1
2022-08-02T13:22:53.721Z,37.4
2022-08-02T13:37:14.633Z,39.5
2022-08-02T13:51:41.738Z,37.4
2022-08-02T14:06:10.282Z,35.2
2022-08-02T14:20:36.995Z,37
2022-08-02T14:35:03.345Z,36.8
2022-08-02T14:49:31.030Z,36.4
2022-08-02T15:03:57.770Z,36.6
2022-08-02T15:18:26.014Z,37.1
2022-08-02T15:32:53.865Z,37.5
2022-08-02T15:47:16.616Z,37.8
2022-08-02T16:01:48.163Z,39.2
2022-08-02T16:16:12.480Z,39.5
2022-08-02T16:30:38.591Z,38.4
2022-08-02T16:45:06.947Z,37.8
2022-08-02T16:59:44.438Z,39.7
2022-08-02T17:14:11.555Z,38.4
2022-08-02T17:29:17.621Z,38.8
2022-08-02T17:43:41.253Z,39.1
2022-08-02T17:58:01.560Z,39.6
2022-08-02T18:12:28.372Z,40.6
2022-08-02T18:26:56.233Z,40.9
2022-08-02T18:41:21.690Z,43.3
2022-08-02T18:56:04.203Z,45.7
2022-08-02T19:10:23.279Z,48.6
2022-08-02T19:24:50.746Z,47.9
2022-08-02T19:39:17.170Z,49.9
2022-08-02T19:53:49.434Z,53.6
2022-08-02T20:08:35.740Z,55.9
2022-08-02T20:22:52.610Z,56.6
2022-08-02T20:38:04.734Z,57.6
2022-08-02T20:52:24.580Z,59.6
2022-08-02T21:06:44.474Z,60.8
2022-08-02T21:21:09.240Z,61.6
2022-08-02T21:35:35.345Z,64.4
2022-08-02T21:50:16.722Z,66.1
2022-08-02T22:04:48.388Z,67.5
2022-08-02T22:19:06.893Z,69.1
2022-08-02T22:33:59.986Z,67.6
2022-08-02T22:48:15.721Z,70.8
2022-08-02T23:02:44.783Z,69.6
2022-08-02T23:17:09.901Z,71.7
2022-08-02T23:31:38.482Z,72.3
2022-08-02T23:46:03.747Z,71.7
